METAR Data
IDs: Format: Raw Decoded Include TAF

Data at: 0300 UTC 23 Apr 2021

YTEF 230200Z AUTO 12013KT 9999 // NCD 27/M00 Q1019
YTEF 230100Z AUTO 13013KT 9999 // NCD 24/01 Q1019
YTEF 230000Z AUTO 13013KT 9999 // NCD 21/02 Q1018
YTEF 222300Z AUTO 15013KT 9999 // NCD 19/02 Q1018
YTEF 222200Z AUTO 14011KT 9999 // NCD 18/01 Q1017
YTEF 222100Z AUTO 14012KT 9999 // NCD 18/00 Q1016
YTEF 222000Z AUTO 15012KT 9999 // NCD 19/01 Q1016
YTEF 221900Z AUTO 14010KT 9999 // NCD 19/00 Q1016
YTEF 221800Z AUTO 14011KT 9999 // NCD 19/M00 Q1016
YTEF 221700Z AUTO 14012KT 9999 // NCD 20/M01 Q1016
YTEF 221600Z AUTO 14010KT 9999 // NCD 21/00 Q1017
YTEF 221500Z AUTO 14010KT 9999 // NCD 22/M01 Q1017
YTEF 221400Z AUTO 15009KT 9999 // NCD 23/M01 Q1017
YTEF 221300Z AUTO 14009KT 9999 // NCD 23/M00 Q1017
YTEF 221200Z AUTO 14008KT 9999 // NCD 23/M00 Q1017
YTEF 221100Z AUTO 14007KT 9999 // NCD 24/00 Q1016
YTEF 221000Z AUTO 12006KT 9999 // NCD 26/M34 Q1015
YTEF 220900Z AUTO 12013KT 9999 // NCD 30/M04 Q1015
YTEF 220800Z AUTO 11013G23KT 080V140 9999 // NCD 31/M06 Q1014
YTEF 220700Z AUTO 10016KT 9999 // NCD 32/M05 Q1014
YTEF 220600Z AUTO 12016KT 9999 // NCD 31/M07 Q1015
YTEF 220503Z AUTO 11015G25KT 9999 // NCD 31/M07 Q1016
YTEF 220500Z AUTO 12014KT 9999 // NCD 32/M05 Q1016
YTEF 220400Z AUTO 11015KT 9999 // NCD 31/M04 Q1017
YTEF 220300Z AUTO 09014KT 9999 // NCD 30/M02 Q1017
YTEF 220200Z AUTO 10015KT 9999 // NCD 29/M02 Q1018
YTEF 220100Z AUTO 11013KT 9999 // NCD 26/01 Q1019
YTEF 220000Z AUTO 13010KT 9999 // NCD 22/02 Q1018
YTEF 212300Z AUTO 11005KT 9999 // NCD 18/04 Q1018
YTEF 212200Z AUTO 14007KT 9999 // ////// 15/03 Q1018
YTEF 212100Z AUTO 14007KT 9999 // NCD 16/03 Q1017
YTEF 212000Z AUTO 14007KT 9999 // NCD 16/03 Q1017
YTEF 211900Z AUTO 08006KT 9999 // NCD 16/02 Q1017
YTEF 211800Z AUTO 11009KT 9999 // NCD 20/00 Q1017
YTEF 211700Z AUTO 11010KT 9999 // NCD 21/00 Q1017
YTEF 211600Z AUTO 14008KT 9999 // NCD 21/01 Q1018